Accueil
METAR-TAF:

METAR-TAF

Aéroports :

Brize Norton, Angleterre

latitude: 51-45N, longitude: 001-35W, altitude: 88 m

Observation

Le bulletin a été fait il y a 24 minutes, à 01:50 UTC
Vent 4 kt de nord/nord-est
Température 0°C
Humidité 80%
Pression 1030 hPa
Visibilité 10 km ou plus
pas de nuages en-dessous de 1500 mètres et pas de cumulonimbus.

METAR: EGVN 170150Z 02004KT CAVOK 00/M03 Q1030 NOSIG RMK BLU BLU

Heure: 03:14 (02:14 UTC)

Prévision

Le bulletin a été fait il y a 3 heures et 45 minutes, à 22:29 UTC
Prévision valable du 17 à 00 UTC au 17 à 24 UTC
Vent 5 kt de nord
Visibilité 10 km ou plus
Nuages épars à une hauteur de 4500 ft
Probabilité 30% :
Temporairement
du 17 à 05 UTC au 17 à 08 UTC
Visibilité: 5000 m
Nuages épars à une hauteur de 2000 ft
brume

TAF: EGVN 162229Z 1700/1724 35005KT 9999 SCT045 PROB30 TEMPO 1705/1708 5000 BR SCT020

Observations et prévisions météorologiques de plus de 4000 aéroports (messages METAR et TAF).

Les stations disponibles sont représentées par des disques jaunes et rouges sur la carte.

Passer la souris dessus pour voir le nom de la station.

Cliquer dessus pour voir les observations et prévisions météorologiques.

Pour changer de carte: cliquez sur les boutons verts avec une croix noire pour zoomer, sur le bouton vert avec un tiret pour effectuer un zoom arrière, ou sur les flèches vertes pour les cartes adjacentes.


METAR-TAF: